Time;durP1;ratioP1;P1;durP2;ratioP2;P2;SDS_P1;SDS_P2;PMS_P1;PMS_P2;Temp;Humidity;BMP_temperature;BMP_pressure;BME280_temperature;BME280_humidity;BME280_pressure;Samples;Min_cycle;Max_cycle;Signal;HPM_P1;HPM_P2
2023/08/26 00:00:19;;;;;;;12.67;11.47;;;;;24.60;99803.00;;;;2112821;28;20242;-73
2023/08/26 00:01:19;;;;;;;11.73;10.30;;;;;24.60;99784.00;;;;2112334;28;20606;-73
2023/08/26 00:02:20;;;;;;;12.67;11.30;;;;;24.60;99808.00;;;;2112719;28;20237;-73
2023/08/26 00:03:20;;;;;;;11.40;10.20;;;;;24.60;99809.00;;;;2112944;28;20569;-73
2023/08/26 00:04:21;;;;;;;12.60;10.80;;;;;24.70;99817.00;;;;2101953;28;20215;-73
2023/08/26 00:05:21;;;;;;;12.47;11.20;;;;;24.70;99811.00;;;;2110300;28;20221;-73
2023/08/26 00:06:21;;;;;;;13.00;10.77;;;;;24.60;99810.00;;;;2120427;28;20567;-73
2023/08/26 00:07:22;;;;;;;12.23;10.97;;;;;24.60;99807.00;;;;2114454;28;20207;-73
2023/08/26 00:08:22;;;;;;;12.77;11.27;;;;;24.60;99819.00;;;;2112553;28;20210;-73
2023/08/26 00:09:22;;;;;;;11.53;10.27;;;;;24.60;99795.00;;;;2101627;28;20218;-73
2023/08/26 00:10:23;;;;;;;12.17;10.00;;;;;24.70;99806.00;;;;2112818;28;20211;-73
2023/08/26 00:11:23;;;;;;;12.20;11.00;;;;;24.70;99806.00;;;;2112854;28;20222;-73
2023/08/26 00:12:23;;;;;;;12.00;10.70;;;;;24.70;99810.00;;;;2111961;28;20242;-73
2023/08/26 00:13:24;;;;;;;12.40;10.10;;;;;24.70;99794.00;;;;2112858;28;20206;-73
2023/08/26 00:14:24;;;;;;;12.60;10.50;;;;;24.60;99794.00;;;;2101967;28;20234;-73
2023/08/26 00:15:24;;;;;;;12.20;11.00;;;;;24.70;99795.00;;;;2112460;28;20301;-73
2023/08/26 00:16:25;;;;;;;13.27;10.27;;;;;24.70;99795.00;;;;2111891;28;20210;-73
2023/08/26 00:17:25;;;;;;;11.77;10.57;;;;;24.70;99794.00;;;;2112816;28;20218;-73
2023/08/26 00:18:26;;;;;;;11.33;10.23;;;;;24.60;99795.00;;;;2112734;28;20214;-73
2023/08/26 00:19:26;;;;;;;11.57;10.00;;;;;24.60;99801.00;;;;2101634;28;20648;-72
2023/08/26 00:20:27;;;;;;;11.73;10.50;;;;;24.60;99797.00;;;;2112799;28;20784;-72
2023/08/26 00:21:28;;;;;;;12.03;10.53;;;;;24.70;99801.00;;;;2107787;28;20614;-72
2023/08/26 00:22:28;;;;;;;11.77;10.60;;;;;24.70;99798.00;;;;2112900;28;20469;-73
2023/08/26 00:23:31;;;;;;;12.00;10.80;;;;;24.70;99797.00;;;;2110097;28;20516;-73
2023/08/26 00:24:32;;;;;;;11.80;10.60;;;;;24.70;99793.00;;;;2112507;28;20241;-73
2023/08/26 00:25:33;;;;;;;13.50;10.77;;;;;24.70;99795.00;;;;2112088;28;20577;-73
2023/08/26 00:26:34;;;;;;;12.77;10.87;;;;;24.60;99789.00;;;;2111688;28;20560;-73
2023/08/26 00:27:34;;;;;;;13.13;11.63;;;;;24.70;99799.00;;;;2112713;28;20222;-73
2023/08/26 00:28:34;;;;;;;11.40;10.20;;;;;24.70;99795.00;;;;2101561;28;20218;-73
2023/08/26 00:29:35;;;;;;;11.63;10.53;;;;;24.70;99794.00;;;;2112770;28;20219;-72
2023/08/26 00:30:35;;;;;;;12.30;11.00;;;;;24.70;99793.00;;;;2112014;28;20230;-72
2023/08/26 00:31:35;;;;;;;12.83;11.20;;;;;24.60;99796.00;;;;2112407;28;20207;-72
2023/08/26 00:32:36;;;;;;;11.10;9.97;;;;;24.70;99795.00;;;;2112521;28;20210;-72
2023/08/26 00:33:36;;;;;;;12.20;11.00;;;;;24.70;99790.00;;;;2101522;28;20623;-72
2023/08/26 00:34:36;;;;;;;11.53;10.33;;;;;24.70;99797.00;;;;2112656;28;20624;-72
2023/08/26 00:35:37;;;;;;;11.33;10.23;;;;;24.70;99794.00;;;;2111695;28;20218;-73
2023/08/26 00:36:38;;;;;;;11.10;9.98;;;;;24.60;99790.00;;;;2113982;28;20211;-73
2023/08/26 00:37:38;;;;;;;11.17;9.90;;;;;24.60;99795.00;;;;2117634;28;20270;-73
2023/08/26 00:38:38;;;;;;;11.83;10.60;;;;;24.60;99797.00;;;;2102479;28;20214;-73
2023/08/26 00:39:39;;;;;;;12.43;11.13;;;;;24.60;99790.00;;;;2112642;28;20964;-73
2023/08/26 00:40:39;;;;;;;14.30;10.87;;;;;24.60;99799.00;;;;2110101;28;20636;-73
2023/08/26 00:41:39;;;;;;;11.80;10.50;;;;;24.60;99802.00;;;;2114442;28;20221;-73
2023/08/26 00:42:40;;;;;;;12.43;10.10;;;;;24.70;99805.00;;;;2113768;28;20215;-73
2023/08/26 00:43:40;;;;;;;12.00;10.80;;;;;24.60;99777.00;;;;2104113;28;20214;-73
2023/08/26 00:44:40;;;;;;;13.27;11.33;;;;;24.60;99791.00;;;;2112934;28;20779;-73
2023/08/26 00:45:42;;;;;;;12.00;10.80;;;;;24.60;99775.00;;;;2112806;28;20214;-73
2023/08/26 00:46:43;;;;;;;12.40;11.23;;;;;24.60;99798.00;;;;2096798;28;20204;-73
2023/08/26 00:47:43;;;;;;;11.60;10.40;;;;;24.70;99800.00;;;;2091606;28;20228;-73
2023/08/26 00:48:43;;;;;;;11.60;10.50;;;;;24.70;99801.00;;;;2095020;28;20199;-73
2023/08/26 00:49:44;;;;;;;12.23;11.10;;;;;24.70;99795.00;;;;2113664;28;20248;-73
2023/08/26 00:50:45;;;;;;;13.13;11.70;;;;;24.60;99802.00;;;;2113951;28;20226;-73
2023/08/26 00:51:46;;;;;;;11.60;10.23;;;;;24.60;99802.00;;;;2102720;28;20673;-73
2023/08/26 00:52:46;;;;;;;11.90;10.70;;;;;24.60;99793.00;;;;2103599;28;20260;-73
2023/08/26 00:53:47;;;;;;;12.53;11.30;;;;;24.60;99793.00;;;;2094598;28;20672;-73
2023/08/26 00:54:47;;;;;;;14.40;12.33;;;;;24.60;99801.00;;;;2104433;28;20211;-73
2023/08/26 00:55:47;;;;;;;11.97;10.73;;;;;24.60;99799.00;;;;2098251;28;20230;-73
2023/08/26 00:56:48;;;;;;;13.20;11.80;;;;;24.60;99809.00;;;;2095843;28;20421;-73
2023/08/26 00:57:48;;;;;;;14.17;12.00;;;;;24.60;99805.00;;;;2099507;28;20220;-73
2023/08/26 00:58:48;;;;;;;12.47;11.17;;;;;24.60;99808.00;;;;2103346;28;20544;-73
2023/08/26 00:59:49;;;;;;;12.77;11.47;;;;;24.60;99747.00;;;;2102399;28;20212;-73
2023/08/26 01:00:49;;;;;;;12.77;11.53;;;;;24.60;99808.00;;;;2080141;28;20217;-73
2023/08/26 01:01:49;;;;;;;12.60;11.30;;;;;24.60;99801.00;;;;2087780;28;20217;-73
2023/08/26 01:02:50;;;;;;;12.23;10.93;;;;;24.60;99799.00;;;;2088543;28;20201;-73
2023/08/26 01:03:50;;;;;;;13.43;12.13;;;;;24.60;99805.00;;;;2086513;28;20289;-73
2023/08/26 01:04:50;;;;;;;13.80;12.43;;;;;24.60;99806.00;;;;2104156;28;20250;-73
2023/08/26 01:05:51;;;;;;;12.73;11.50;;;;;24.60;99809.00;;;;2096505;28;20302;-73
2023/08/26 01:06:51;;;;;;;12.40;11.03;;;;;24.60;99818.00;;;;2104790;28;20196;-73
2023/08/26 01:07:51;;;;;;;12.50;10.80;;;;;24.60;99819.00;;;;2113623;28;20256;-73
2023/08/26 01:08:52;;;;;;;12.80;11.50;;;;;24.60;99813.00;;;;2103946;28;20252;-73
2023/08/26 01:09:52;;;;;;;12.30;11.10;;;;;24.60;99818.00;;;;2106898;28;20288;-73
2023/08/26 01:10:55;;;;;;;13.33;11.93;;;;;24.60;99804.00;;;;2088322;28;20221;-73
2023/08/26 01:12:25;;;;;;;12.90;11.45;;;;;24.60;99803.00;;;;2096791;28;20588;-72
2023/08/26 01:13:30;;;;;;;12.45;10.77;;;;;24.60;99806.00;;;;2095738;28;20208;-71
2023/08/26 01:14:30;;;;;;;13.15;11.90;;;;;24.60;99799.00;;;;2092272;28;20216;-72
2023/08/26 01:15:30;;;;;;;12.93;11.70;;;;;24.60;99808.00;;;;2106102;28;20231;-72
2023/08/26 01:16:30;;;;;;;14.63;10.30;;;;;24.60;99809.00;;;;2112851;28;20211;-72
2023/08/26 01:17:31;;;;;;;10.83;9.83;;;;;24.60;99800.00;;;;2114365;28;20262;-72
2023/08/26 01:18:31;;;;;;;11.87;10.40;;;;;24.60;99802.00;;;;2097552;28;20232;-71
2023/08/26 01:19:39;;;;;;;12.17;10.93;;;;;24.60;99803.00;;;;2096211;28;20232;-71
2023/08/26 01:20:41;;;;;;;10.88;9.75;;;;;24.60;99797.00;;;;2105143;28;20229;-72
2023/08/26 01:21:41;;;;;;;10.75;9.65;;;;;24.60;99809.00;;;;2095888;28;20219;-72
2023/08/26 01:22:41;;;;;;;12.20;11.00;;;;;24.60;99804.00;;;;2086846;28;20213;-72
2023/08/26 01:23:43;;;;;;;12.40;11.10;;;;;24.60;99770.00;;;;2085031;28;20227;-72
2023/08/26 01:24:43;;;;;;;11.82;10.65;;;;;24.60;99813.00;;;;2088444;28;20201;-72
2023/08/26 01:25:43;;;;;;;11.60;10.50;;;;;24.60;99801.00;;;;2095607;28;20251;-72
2023/08/26 01:26:44;;;;;;;11.10;9.90;;;;;24.60;99823.00;;;;2096313;28;20208;-72
2023/08/26 01:27:44;;;;;;;11.90;10.20;;;;;24.60;99822.00;;;;2104954;28;20219;-72
2023/08/26 01:28:45;;;;;;;10.90;9.67;;;;;24.60;99825.00;;;;2101040;27;20260;-72
2023/08/26 01:29:45;;;;;;;12.10;10.90;;;;;24.60;99835.00;;;;2107798;28;20758;-72
2023/08/26 01:30:45;;;;;;;9.60;8.60;;;;;24.50;99774.00;;;;2113089;28;20248;-72
2023/08/26 01:31:47;;;;;;;11.00;9.47;;;;;24.50;99812.00;;;;2096530;28;20690;-72
2023/08/26 01:33:01;;;;;;;9.60;8.65;;;;;24.60;99830.00;;;;2079629;28;20210;-71
2023/08/26 01:34:11;;;;;;;10.35;9.30;;;;;24.50;99821.00;;;;2081977;28;20221;-71
2023/08/26 01:35:17;;;;;;;10.03;9.00;;;;;24.50;99828.00;;;;2105291;28;20219;-71
2023/08/26 01:36:19;;;;;;;10.70;9.60;;;;;24.50;99832.00;;;;2094288;28;20450;-72
2023/08/26 01:37:19;;;;;;;11.40;10.30;;;;;24.50;99832.00;;;;2090687;28;20379;-72
2023/08/26 01:38:20;;;;;;;11.90;8.83;;;;;24.50;99837.00;;;;2104374;28;20240;-72
2023/08/26 01:39:20;;;;;;;10.10;9.10;;;;;24.50;99831.00;;;;2086413;28;20208;-72
2023/08/26 01:40:20;;;;;;;10.13;9.13;;;;;24.50;99784.00;;;;2095769;28;20273;-72
2023/08/26 01:41:21;;;;;;;10.30;9.27;;;;;24.50;99836.00;;;;2096570;28;20674;-72
2023/08/26 01:42:23;;;;;;;9.33;8.40;;;;;24.50;99832.00;;;;2087341;28;20209;-72
2023/08/26 01:43:23;;;;;;;9.37;8.40;;;;;24.50;99837.00;;;;2088482;28;20256;-72
2023/08/26 01:44:24;;;;;;;8.70;7.60;;;;;24.50;99837.00;;;;2085744;28;20453;-72
2023/08/26 01:45:24;;;;;;;10.00;9.00;;;;;24.50;99827.00;;;;2104328;28;20231;-72
2023/08/26 01:46:37;;;;;;;8.53;7.73;;;;;24.50;99842.00;;;;2096149;28;20208;-72
2023/08/26 01:47:38;;;;;;;10.00;9.00;;;;;24.50;99840.00;;;;2105879;28;20223;-72
2023/08/26 01:48:38;;;;;;;10.17;8.17;;;;;24.50;99839.00;;;;2103558;28;20464;-72
2023/08/26 01:49:38;;;;;;;9.93;8.63;;;;;24.50;99834.00;;;;2113008;28;20222;-72
2023/08/26 01:50:39;;;;;;;9.00;8.20;;;;;24.50;99835.00;;;;2113838;28;20253;-72
2023/08/26 01:51:39;;;;;;;9.57;8.57;;;;;24.50;99829.00;;;;2111046;28;20214;-72
2023/08/26 01:52:41;;;;;;;8.60;7.80;;;;;24.50;99829.00;;;;2104626;28;20219;-72
2023/08/26 01:53:41;;;;;;;8.45;7.65;;;;;24.50;99832.00;;;;2094628;28;20212;-72
2023/08/26 01:54:42;;;;;;;9.80;8.90;;;;;24.50;99838.00;;;;2112809;28;20625;-72
2023/08/26 01:55:42;;;;;;;8.67;7.87;;;;;24.50;99832.00;;;;2112958;28;20263;-72
2023/08/26 01:56:42;;;;;;;9.10;8.13;;;;;24.50;99837.00;;;;2112772;28;20667;-72
2023/08/26 01:57:43;;;;;;;10.17;8.07;;;;;24.50;99832.00;;;;2113781;28;20722;-72
2023/08/26 01:58:43;;;;;;;9.60;8.60;;;;;24.50;99838.00;;;;2103579;27;20198;-72
2023/08/26 01:59:44;;;;;;;8.60;7.60;;;;;24.50;99841.00;;;;2118223;27;20206;-72
2023/08/26 02:00:44;;;;;;;7.83;7.03;;;;;24.50;99838.00;;;;2113024;28;20268;-72
2023/08/26 02:01:44;;;;;;;7.33;6.30;;;;;24.50;99836.00;;;;2112836;28;20211;-72
2023/08/26 02:02:44;;;;;;;9.73;8.43;;;;;24.50;99834.00;;;;2104704;28;20214;-72
2023/08/26 02:03:45;;;;;;;8.57;7.73;;;;;24.50;99834.00;;;;2094344;28;20211;-72
2023/08/26 02:04:45;;;;;;;8.27;7.47;;;;;24.50;99834.00;;;;2113068;28;20206;-72
2023/08/26 02:05:46;;;;;;;7.43;6.70;;;;;24.50;99833.00;;;;2113433;28;20256;-72
2023/08/26 02:06:46;;;;;;;9.30;7.50;;;;;24.50;99835.00;;;;2115351;27;20687;-72
2023/08/26 02:07:46;;;;;;;8.73;7.77;;;;;24.50;99835.00;;;;2113984;27;20688;-72
2023/08/26 02:08:47;;;;;;;7.33;6.63;;;;;24.50;99835.00;;;;2103395;28;20227;-72
2023/08/26 02:09:47;;;;;;;10.10;8.40;;;;;24.50;99827.00;;;;2112772;28;20207;-72
2023/08/26 02:10:56;;;;;;;8.27;7.40;;;;;24.50;99831.00;;;;2113735;28;20230;-72
2023/08/26 02:11:57;;;;;;;8.07;7.23;;;;;24.50;99826.00;;;;2112840;28;20558;-72
2023/08/26 02:12:57;;;;;;;7.83;7.03;;;;;24.50;99829.00;;;;2113668;28;20445;-72
2023/08/26 02:13:57;;;;;;;7.93;7.10;;;;;24.50;99834.00;;;;2103360;28;20579;-72
2023/08/26 02:14:58;;;;;;;8.10;7.30;;;;;24.50;99838.00;;;;2113001;28;20692;-72
2023/08/26 02:15:58;;;;;;;7.30;6.03;;;;;24.50;99844.00;;;;2113519;28;20680;-72
2023/08/26 02:16:58;;;;;;;8.00;7.20;;;;;24.50;99853.00;;;;2112680;28;20209;-72
2023/08/26 02:17:59;;;;;;;7.83;7.13;;;;;24.50;99854.00;;;;2113629;28;20244;-72
2023/08/26 02:18:59;;;;;;;8.00;6.40;;;;;24.50;99845.00;;;;2103022;28;20219;-72
2023/08/26 02:19:59;;;;;;;8.37;7.40;;;;;24.50;99855.00;;;;2113600;28;20217;-72
2023/08/26 02:21:00;;;;;;;7.60;6.90;;;;;24.50;99854.00;;;;2113638;28;20207;-72
2023/08/26 02:22:01;;;;;;;8.67;7.37;;;;;24.50;99854.00;;;;2112989;28;20205;-72
2023/08/26 02:23:02;;;;;;;7.40;6.60;;;;;24.50;99862.00;;;;2113639;28;20206;-72
2023/08/26 02:24:02;;;;;;;7.70;6.80;;;;;24.50;99855.00;;;;2102198;28;20973;-72
2023/08/26 02:25:03;;;;;;;7.73;6.63;;;;;24.50;99851.00;;;;2113590;28;20219;-72
2023/08/26 02:26:03;;;;;;;7.37;6.37;;;;;24.50;99862.00;;;;2112544;28;20324;-72
2023/08/26 02:27:04;;;;;;;7.07;6.37;;;;;24.50;99852.00;;;;2113316;28;20215;-72
2023/08/26 02:28:04;;;;;;;8.37;6.23;;;;;24.50;99854.00;;;;2104036;28;20223;-72
2023/08/26 02:29:05;;;;;;;6.90;5.80;;;;;24.50;99859.00;;;;2089233;28;20208;-72
2023/08/26 02:30:06;;;;;;;7.60;6.10;;;;;24.50;99859.00;;;;2112403;28;20297;-72
2023/08/26 02:31:06;;;;;;;7.90;5.43;;;;;24.50;99855.00;;;;2112745;28;20217;-72
2023/08/26 02:32:07;;;;;;;6.83;5.20;;;;;24.50;99861.00;;;;2106897;28;20269;-72
2023/08/26 02:33:08;;;;;;;6.17;5.30;;;;;24.50;99858.00;;;;2098200;28;21067;-72
2023/08/26 02:34:09;;;;;;;5.70;5.00;;;;;24.40;99857.00;;;;2086145;28;20469;-72
2023/08/26 02:35:09;;;;;;;6.00;5.37;;;;;24.50;99863.00;;;;2104001;28;20220;-72
2023/08/26 02:36:10;;;;;;;6.23;5.20;;;;;24.50;99870.00;;;;2112055;28;20219;-72
2023/08/26 02:37:10;;;;;;;7.30;4.70;;;;;24.50;99864.00;;;;2113196;28;20648;-72
2023/08/26 02:38:11;;;;;;;5.20;4.67;;;;;24.40;99865.00;;;;2103375;28;20469;-72
2023/08/26 02:39:11;;;;;;;4.80;4.40;;;;;24.40;99859.00;;;;2093966;28;20212;-72
2023/08/26 02:40:11;;;;;;;4.77;3.97;;;;;24.40;99860.00;;;;2112489;28;20280;-72
2023/08/26 02:41:12;;;;;;;4.40;3.90;;;;;24.40;99870.00;;;;2113327;28;20214;-72
2023/08/26 02:42:12;;;;;;;5.80;4.60;;;;;24.40;99871.00;;;;2103578;28;20250;-72
2023/08/26 02:43:12;;;;;;;4.87;4.00;;;;;24.40;99866.00;;;;2104098;28;20884;-72
2023/08/26 02:44:13;;;;;;;5.47;3.87;;;;;24.40;99870.00;;;;2099602;28;20659;-72
2023/08/26 02:45:13;;;;;;;5.93;3.90;;;;;24.40;99865.00;;;;2112512;28;20207;-72
2023/08/26 02:46:13;;;;;;;4.47;3.97;;;;;24.40;99870.00;;;;2112797;28;20222;-72
2023/08/26 02:47:14;;;;;;;5.93;3.27;;;;;24.40;99878.00;;;;2103156;28;20290;-72
2023/08/26 02:48:14;;;;;;;5.23;3.23;;;;;24.40;99872.00;;;;2104227;28;20208;-72
2023/08/26 02:49:14;;;;;;;3.77;3.37;;;;;24.40;99877.00;;;;2092497;28;20218;-72
2023/08/26 02:50:15;;;;;;;4.83;3.00;;;;;24.40;99869.00;;;;2104148;28;20216;-72
2023/08/26 02:51:15;;;;;;;5.70;3.00;;;;;24.30;99871.00;;;;2113195;28;20222;-72
2023/08/26 02:52:15;;;;;;;4.07;3.53;;;;;23.80;99876.00;;;;2112468;28;20217;-72
2023/08/26 02:53:16;;;;;;;4.67;3.10;;;;;24.40;99884.00;;;;2113344;28;20210;-72
2023/08/26 02:54:16;;;;;;;3.40;2.97;;;;;24.40;99887.00;;;;2102334;28;20233;-72
2023/08/26 02:55:16;;;;;;;5.07;3.30;;;;;24.40;99889.00;;;;2112766;28;20211;-72
2023/08/26 02:56:17;;;;;;;3.83;2.60;;;;;24.30;99881.00;;;;2112311;28;20206;-72
2023/08/26 02:57:17;;;;;;;5.00;3.17;;;;;24.30;99887.00;;;;2112887;28;20570;-72
2023/08/26 02:58:18;;;;;;;3.70;2.80;;;;;24.20;99882.00;;;;2113144;28;20203;-72
2023/08/26 02:59:19;;;;;;;3.50;2.85;;;;;24.30;99885.00;;;;2094588;28;20221;-72
2023/08/26 03:00:19;;;;;;;6.07;3.27;;;;;24.30;99884.00;;;;2106350;28;20222;-72
2023/08/26 03:01:20;;;;;;;4.40;2.70;;;;;24.30;99891.00;;;;2112203;27;20260;-72
2023/08/26 03:02:24;;;;;;;5.67;2.43;;;;;24.30;99871.00;;;;2113116;28;20211;-72
2023/08/26 03:03:24;;;;;;;5.15;2.70;;;;;24.30;99906.00;;;;2112892;28;20457;-72
2023/08/26 03:04:25;;;;;;;3.97;2.50;;;;;24.30;99899.00;;;;2102962;28;20297;-72
2023/08/26 03:05:25;;;;;;;4.40;2.40;;;;;24.30;99908.00;;;;2112160;28;20203;-72
2023/08/26 03:06:25;;;;;;;3.90;2.83;;;;;24.30;99901.00;;;;2120080;27;20210;-72
2023/08/26 03:07:26;;;;;;;3.03;2.30;;;;;24.30;99903.00;;;;2095622;28;20239;-72
2023/08/26 03:08:26;;;;;;;5.30;2.80;;;;;24.30;99864.00;;;;2098251;28;20204;-72
2023/08/26 03:09:28;;;;;;;4.60;2.43;;;;;24.30;99908.00;;;;2100817;28;20218;-72
2023/08/26 03:10:28;;;;;;;3.45;2.30;;;;;24.30;99897.00;;;;2113086;28;20221;-72
2023/08/26 03:11:28;;;;;;;2.80;2.20;;;;;24.30;99910.00;;;;2112867;28;20311;-72
2023/08/26 03:12:29;;;;;;;2.90;2.50;;;;;24.30;99913.00;;;;2112607;28;20664;-72
2023/08/26 03:13:30;;;;;;;4.53;2.10;;;;;24.30;99905.00;;;;2110240;28;20578;-72
2023/08/26 03:14:30;;;;;;;2.60;2.17;;;;;24.30;99904.00;;;;2109053;28;20218;-72
2023/08/26 03:15:30;;;;;;;2.60;1.90;;;;;24.30;99919.00;;;;2103820;28;20465;-72
2023/08/26 03:16:31;;;;;;;2.43;2.10;;;;;24.30;99906.00;;;;2107074;28;20251;-72
2023/08/26 03:17:31;;;;;;;4.60;2.50;;;;;24.30;99918.00;;;;2112981;28;20225;-71
2023/08/26 03:18:31;;;;;;;3.53;2.13;;;;;24.30;99910.00;;;;2093845;28;20282;-71
2023/08/26 03:19:32;;;;;;;3.23;2.20;;;;;24.30;99921.00;;;;2095024;28;20220;-71
2023/08/26 03:20:33;;;;;;;3.50;2.30;;;;;24.30;99914.00;;;;2103794;28;20463;-71
2023/08/26 03:21:33;;;;;;;4.03;1.90;;;;;24.30;99917.00;;;;2103097;28;20272;-71
2023/08/26 03:22:33;;;;;;;2.93;2.10;;;;;24.30;99911.00;;;;2113059;28;20252;-71
2023/08/26 03:23:36;;;;;;;3.73;2.30;;;;;24.30;99895.00;;;;2098477;28;20253;-71
2023/08/26 03:24:37;;;;;;;3.25;1.95;;;;;24.20;99923.00;;;;2106858;28;20695;-71
2023/08/26 03:25:38;;;;;;;2.58;1.85;;;;;24.30;99914.00;;;;2112654;28;21058;-71
2023/08/26 03:26:39;;;;;;;4.43;2.80;;;;;24.30;99922.00;;;;2111793;28;20214;-71
2023/08/26 03:27:39;;;;;;;3.40;2.27;;;;;24.20;99911.00;;;;2105408;28;20216;-72
2023/08/26 03:28:40;;;;;;;2.90;2.10;;;;;24.30;99917.00;;;;2101828;28;20221;-72
2023/08/26 03:29:40;;;;;;;2.73;1.90;;;;;24.20;99921.00;;;;2103989;28;20766;-72
2023/08/26 03:30:40;;;;;;;4.00;2.23;;;;;24.20;99891.00;;;;2102035;28;20207;-72
2023/08/26 03:31:43;;;;;;;2.17;1.93;;;;;24.20;99919.00;;;;2113005;28;20290;-72
2023/08/26 03:32:43;;;;;;;3.28;1.80;;;;;24.20;99917.00;;;;2112580;27;20222;-72
2023/08/26 03:33:43;;;;;;;2.87;1.80;;;;;24.20;99923.00;;;;2101795;28;20215;-72
2023/08/26 03:34:44;;;;;;;2.50;1.83;;;;;24.20;99911.00;;;;2112871;28;20631;-72
2023/08/26 03:35:44;;;;;;;2.10;1.73;;;;;24.20;99916.00;;;;2111612;28;20695;-72
2023/08/26 03:36:44;;;;;;;2.80;1.80;;;;;24.30;99922.00;;;;2103770;28;20208;-72
2023/08/26 03:37:45;;;;;;;4.07;2.03;;;;;24.20;99916.00;;;;2102200;28;20286;-72
2023/08/26 03:38:45;;;;;;;2.10;1.60;;;;;24.20;99912.00;;;;2102607;28;20698;-72
2023/08/26 03:39:46;;;;;;;3.40;1.73;;;;;24.20;99910.00;;;;2112889;28;20663;-72
2023/08/26 03:40:46;;;;;;;3.67;1.93;;;;;24.20;99912.00;;;;2112130;28;20226;-72
2023/08/26 03:41:46;;;;;;;2.50;1.77;;;;;24.20;99926.00;;;;2112840;28;20752;-72
2023/08/26 03:42:47;;;;;;;3.33;2.13;;;;;24.20;99923.00;;;;2112873;27;20214;-72
2023/08/26 03:43:47;;;;;;;3.70;2.13;;;;;24.20;99933.00;;;;2102342;28;20214;-72
2023/08/26 03:44:47;;;;;;;2.37;1.53;;;;;24.20;99922.00;;;;2111539;28;20210;-72
2023/08/26 03:45:48;;;;;;;5.50;1.50;;;;;24.20;99925.00;;;;2106404;28;20203;-72
2023/08/26 03:46:48;;;;;;;3.00;1.53;;;;;24.20;99923.00;;;;2112879;28;20215;-72
2023/08/26 03:47:49;;;;;;;2.50;1.93;;;;;24.20;99923.00;;;;2111900;28;20645;-72
2023/08/26 03:48:49;;;;;;;2.20;1.80;;;;;24.20;99922.00;;;;2102734;28;20368;-72
2023/08/26 03:49:50;;;;;;;2.67;1.50;;;;;24.20;99917.00;;;;2112108;28;20597;-72
2023/08/26 03:50:54;;;;;;;3.00;1.60;;;;;24.20;99922.00;;;;2112841;28;20207;-72
2023/08/26 03:51:54;;;;;;;2.88;1.55;;;;;24.20;99927.00;;;;2102503;28;20203;-72
2023/08/26 03:52:55;;;;;;;3.40;1.77;;;;;24.20;99916.00;;;;2103790;28;20336;-72
2023/08/26 03:53:55;;;;;;;2.40;1.63;;;;;24.20;99927.00;;;;2101720;28;20219;-72
2023/08/26 03:54:55;;;;;;;3.00;1.33;;;;;24.20;99928.00;;;;2112069;28;20662;-72
2023/08/26 03:55:56;;;;;;;2.17;1.47;;;;;24.20;99934.00;;;;2112604;28;20219;-72
2023/08/26 03:56:56;;;;;;;3.30;1.50;;;;;24.20;99930.00;;;;2111877;28;20206;-72
2023/08/26 03:57:56;;;;;;;5.00;2.63;;;;;24.20;99927.00;;;;2112793;28;20214;-72
2023/08/26 03:58:57;;;;;;;3.50;1.40;;;;;24.20;99932.00;;;;2101789;28;20221;-72
2023/08/26 03:59:57;;;;;;;1.57;1.20;;;;;24.20;99939.00;;;;2112849;28;20244;-72
2023/08/26 04:01:02;;;;;;;2.50;1.57;;;;;24.20;99933.00;;;;2112878;28;20211;-72
2023/08/26 04:02:02;;;;;;;2.95;1.70;;;;;24.20;99933.00;;;;2112102;28;20202;-72
2023/08/26 04:03:02;;;;;;;3.00;1.40;;;;;24.20;99930.00;;;;2112824;28;20206;-72
2023/08/26 04:04:03;;;;;;;2.70;1.60;;;;;24.10;99926.00;;;;2105602;27;20294;-72
2023/08/26 04:05:04;;;;;;;5.93;1.60;;;;;24.20;99921.00;;;;2111748;28;20223;-72
2023/08/26 04:06:04;;;;;;;2.97;2.10;;;;;24.20;99894.00;;;;2112617;28;20233;-72
2023/08/26 04:07:05;;;;;;;5.53;1.90;;;;;24.20;99940.00;;;;2112750;28;20620;-72
2023/08/26 04:08:05;;;;;;;2.80;1.60;;;;;24.20;99933.00;;;;2112117;28;20215;-72
2023/08/26 04:09:05;;;;;;;3.03;1.40;;;;;24.20;99939.00;;;;2106594;28;20253;-72
2023/08/26 04:10:06;;;;;;;2.40;1.20;;;;;24.10;99937.00;;;;2102665;28;20243;-72
2023/08/26 04:11:07;;;;;;;1.60;1.40;;;;;24.10;99945.00;;;;2103728;28;20218;-72
2023/08/26 04:12:07;;;;;;;3.03;1.70;;;;;24.10;99938.00;;;;2111785;28;20243;-72
2023/08/26 04:13:19;;;;;;;2.27;1.67;;;;;24.10;99939.00;;;;2095216;28;21018;-72
2023/08/26 04:14:19;;;;;;;3.13;1.70;;;;;24.10;99931.00;;;;2078699;28;20213;-72
2023/08/26 04:15:20;;;;;;;4.20;1.93;;;;;24.10;99939.00;;;;2096605;28;20744;-72
2023/08/26 04:16:21;;;;;;;3.00;1.53;;;;;24.10;99945.00;;;;2096812;28;20209;-72
2023/08/26 04:17:21;;;;;;;3.42;1.90;;;;;24.10;99933.00;;;;2096572;28;20717;-72
2023/08/26 04:18:22;;;;;;;4.40;1.83;;;;;24.10;99935.00;;;;2105386;28;20254;-72
2023/08/26 04:19:22;;;;;;;2.00;1.40;;;;;24.10;99944.00;;;;2077854;28;20225;-72
2023/08/26 04:20:22;;;;;;;2.27;1.30;;;;;24.10;99950.00;;;;2088681;28;20270;-72
2023/08/26 04:21:23;;;;;;;4.60;1.67;;;;;24.10;99938.00;;;;2104346;28;20233;-72
2023/08/26 04:22:23;;;;;;;2.07;1.43;;;;;24.10;99913.00;;;;2096935;28;20258;-72
2023/08/26 04:23:23;;;;;;;5.20;1.63;;;;;24.10;99954.00;;;;2097070;28;20302;-72
2023/08/26 04:24:24;;;;;;;2.73;1.67;;;;;24.10;99949.00;;;;2094811;28;20264;-71
2023/08/26 04:25:26;;;;;;;2.07;1.50;;;;;24.10;99950.00;;;;2112402;28;20244;-71
2023/08/26 04:26:26;;;;;;;2.35;1.60;;;;;24.10;99946.00;;;;2113374;28;20226;-71
2023/08/26 04:27:27;;;;;;;2.83;1.80;;;;;24.10;99942.00;;;;2114526;28;20210;-71
2023/08/26 04:28:29;;;;;;;2.30;1.50;;;;;24.10;99944.00;;;;2113753;28;20211;-71
2023/08/26 04:29:29;;;;;;;2.35;1.45;;;;;24.10;99940.00;;;;2095876;28;20351;-71
2023/08/26 04:30:30;;;;;;;2.37;1.67;;;;;24.10;99955.00;;;;2097100;28;20215;-72
2023/08/26 04:31:30;;;;;;;2.80;1.50;;;;;24.10;99951.00;;;;2104793;28;20204;-72
2023/08/26 04:32:30;;;;;;;1.80;1.23;;;;;24.10;99937.00;;;;2109360;28;20209;-72
2023/08/26 04:33:31;;;;;;;2.17;1.47;;;;;24.10;99947.00;;;;2092007;28;20212;-72
2023/08/26 04:34:31;;;;;;;2.93;1.40;;;;;24.10;99948.00;;;;2114363;28;20263;-72
2023/08/26 04:35:32;;;;;;;3.47;1.50;;;;;24.10;99857.00;;;;2113279;28;20222;-72
2023/08/26 04:36:32;;;;;;;3.28;1.50;;;;;24.10;99946.00;;;;2105085;28;20222;-72
2023/08/26 04:37:33;;;;;;;4.17;2.10;;;;;24.10;99954.00;;;;2099739;28;20247;-72
2023/08/26 04:38:33;;;;;;;1.93;1.33;;;;;24.10;99958.00;;;;2103308;28;20218;-72
2023/08/26 04:39:34;;;;;;;3.77;1.57;;;;;24.10;99970.00;;;;2114152;28;20240;-72
2023/08/26 04:40:34;;;;;;;1.37;1.23;;;;;24.10;99961.00;;;;2112148;28;20218;-72
2023/08/26 04:41:34;;;;;;;2.23;1.50;;;;;24.00;99958.00;;;;2113069;28;20221;-72
2023/08/26 04:42:35;;;;;;;2.60;1.80;;;;;24.10;99957.00;;;;2114070;28;20215;-72
2023/08/26 04:43:35;;;;;;;4.23;1.20;;;;;24.10;99963.00;;;;2103651;27;20214;-72
2023/08/26 04:44:36;;;;;;;3.67;1.50;;;;;24.10;99963.00;;;;2114305;28;20234;-72
2023/08/26 04:45:40;;;;;;;3.30;1.77;;;;;24.10;99968.00;;;;2113350;28;20217;-72
2023/08/26 04:46:42;;;;;;;2.03;1.40;;;;;24.10;99971.00;;;;2111826;28;20210;-72
2023/08/26 04:47:42;;;;;;;1.92;1.30;;;;;24.10;99967.00;;;;2112498;28;20217;-72
2023/08/26 04:48:43;;;;;;;1.90;1.33;;;;;24.10;99973.00;;;;2103975;28;20237;-72
2023/08/26 04:49:43;;;;;;;1.73;1.10;;;;;24.10;99966.00;;;;2112344;28;20271;-72
2023/08/26 04:50:43;;;;;;;3.23;1.53;;;;;24.00;99970.00;;;;2113534;28;20245;-72
2023/08/26 04:51:49;;;;;;;2.00;1.23;;;;;24.10;99973.00;;;;2114089;28;20271;-72
2023/08/26 04:52:49;;;;;;;1.50;1.17;;;;;24.00;99970.00;;;;2102661;28;20331;-72
2023/08/26 04:53:50;;;;;;;4.07;1.57;;;;;24.10;99972.00;;;;2093681;28;20221;-72
2023/08/26 04:54:50;;;;;;;3.03;1.53;;;;;24.10;99975.00;;;;2108643;28;20284;-72
2023/08/26 04:55:51;;;;;;;1.70;1.37;;;;;24.10;99970.00;;;;2109885;28;20227;-72
2023/08/26 04:56:51;;;;;;;2.93;1.60;;;;;24.10;99984.00;;;;2104338;28;20219;-72
2023/08/26 04:57:52;;;;;;;3.80;1.50;;;;;24.10;99980.00;;;;2104337;28;20465;-72
2023/08/26 04:58:53;;;;;;;3.05;1.45;;;;;24.10;99979.00;;;;2099503;28;20237;-72
2023/08/26 04:59:53;;;;;;;3.93;1.63;;;;;24.10;99983.00;;;;2112761;28;20211;-71
2023/08/26 05:00:54;;;;;;;4.13;1.43;;;;;24.10;99980.00;;;;2114149;28;20206;-71
2023/08/26 05:01:54;;;;;;;3.27;1.30;;;;;24.10;99986.00;;;;2113363;28;20207;-71